createdAt,value
2019-06-15T00:02:57.347Z,18.82
2019-06-15T00:07:04.286Z,18.80
2019-06-15T00:11:11.073Z,18.82
2019-06-15T00:15:18.169Z,18.69
2019-06-15T00:19:25.011Z,18.72
2019-06-15T00:23:31.983Z,18.74
2019-06-15T00:27:38.856Z,18.74
2019-06-15T00:31:46.164Z,18.82
2019-06-15T00:35:55.062Z,18.80
2019-06-15T00:40:03.777Z,18.79
2019-06-15T00:44:10.828Z,18.80
2019-06-15T00:48:17.850Z,18.65
2019-06-15T00:52:24.638Z,18.70
2019-06-15T00:56:31.486Z,18.61
2019-06-15T01:00:38.576Z,18.61
2019-06-15T01:04:45.466Z,18.58
2019-06-15T01:08:52.420Z,18.52
2019-06-15T01:12:59.474Z,18.50
2019-06-15T01:17:06.308Z,18.32
2019-06-15T01:21:13.450Z,18.24
2019-06-15T01:25:21.957Z,18.12
2019-06-15T01:29:28.870Z,18.12
2019-06-15T01:33:35.750Z,18.05
2019-06-15T01:37:46.479Z,18.00
2019-06-15T01:41:53.269Z,17.98
2019-06-15T01:45:59.986Z,17.92
2019-06-15T01:50:07.016Z,17.87
2019-06-15T01:54:13.818Z,17.86
2019-06-15T01:58:20.544Z,17.81
2019-06-15T02:02:27.271Z,17.72
2019-06-15T02:06:34.261Z,17.77
2019-06-15T02:10:41.024Z,17.69
2019-06-15T02:14:48.034Z,17.61
2019-06-15T02:18:54.906Z,17.62
2019-06-15T02:23:02.065Z,17.55
2019-06-15T02:27:08.850Z,17.47
2019-06-15T02:31:15.711Z,17.47
2019-06-15T02:35:22.706Z,17.40
2019-06-15T02:39:29.656Z,17.41
2019-06-15T02:43:36.614Z,17.39
2019-06-15T02:47:43.469Z,17.37
2019-06-15T02:51:52.581Z,17.44
2019-06-15T02:56:02.070Z,17.39
2019-06-15T03:00:11.209Z,17.30
2019-06-15T03:04:39.080Z,17.29
2019-06-15T03:08:49.732Z,17.26
2019-06-15T03:12:57.348Z,17.22
2019-06-15T03:17:04.308Z,17.23
2019-06-15T03:21:11.177Z,17.24
2019-06-15T03:25:18.205Z,17.25
2019-06-15T03:29:25.128Z,17.21
2019-06-15T03:33:32.286Z,17.28
2019-06-15T03:37:40.856Z,17.26
2019-06-15T03:41:47.768Z,17.37
2019-06-15T03:45:54.932Z,17.40
2019-06-15T03:50:02.129Z,17.48
2019-06-15T03:54:09.292Z,17.49
2019-06-15T03:58:18.806Z,17.51
2019-06-15T04:02:28.726Z,17.57
2019-06-15T04:06:35.792Z,17.42
2019-06-15T04:10:45.185Z,17.45
2019-06-15T04:14:52.585Z,17.46
2019-06-15T04:38:35.754Z,17.52
2019-06-15T05:42:16.052Z,18.64
2019-06-15T05:46:46.981Z,18.67
2019-06-15T06:07:45.205Z,19.06
2019-06-15T06:11:52.005Z,19.28
2019-06-15T06:16:00.066Z,19.08
2019-06-15T06:20:08.372Z,19.05
2019-06-15T06:24:16.317Z,19.19
2019-06-15T06:28:37.957Z,19.21
2019-06-15T06:32:50.657Z,19.15
2019-06-15T06:36:59.567Z,19.43
2019-06-15T06:41:39.048Z,19.56
2019-06-15T06:46:16.422Z,19.73
2019-06-15T06:50:31.083Z,19.83
2019-06-15T06:55:00.642Z,20.02
2019-06-15T06:59:20.274Z,20.14
2019-06-15T07:04:00.204Z,20.29
2019-06-15T07:08:29.257Z,20.62
2019-06-15T07:12:45.313Z,20.96
2019-06-15T07:27:39.019Z,21.65
2019-06-15T07:31:49.356Z,21.88
2019-06-15T07:36:06.340Z,22.02
2019-06-15T07:40:17.756Z,22.15
2019-06-15T07:44:30.322Z,21.84
2019-06-15T07:48:52.224Z,21.86
2019-06-15T07:53:24.803Z,22.04
2019-06-15T07:58:24.037Z,22.38
2019-06-15T08:03:16.199Z,22.59
2019-06-15T08:08:11.910Z,22.46
2019-06-15T08:12:21.358Z,22.58
2019-06-15T08:16:55.061Z,22.67
2019-06-15T08:21:02.054Z,22.68
2019-06-15T08:25:10.114Z,23.20
2019-06-15T08:29:25.824Z,23.72
2019-06-15T08:33:37.436Z,23.69
2019-06-15T08:37:50.240Z,23.83
2019-06-15T08:42:07.557Z,24.56
2019-06-15T08:46:33.946Z,23.94
2019-06-15T08:50:45.792Z,23.51
2019-06-15T08:54:58.521Z,23.19
2019-06-15T08:59:05.921Z,23.36
2019-06-15T09:03:17.603Z,23.19
2019-06-15T09:07:24.821Z,23.49
2019-06-15T09:11:31.929Z,23.11
2019-06-15T09:15:52.648Z,23.79
2019-06-15T09:19:59.439Z,23.41
2019-06-15T09:24:06.178Z,24.97
2019-06-15T09:28:13.032Z,25.11
2019-06-15T09:32:19.915Z,24.98
2019-06-15T09:36:26.640Z,24.98
2019-06-15T09:40:33.615Z,25.70
2019-06-15T09:44:40.511Z,26.21
2019-06-15T09:48:49.832Z,25.28
2019-06-15T09:52:57.936Z,25.47
2019-06-15T09:57:05.196Z,25.62
2019-06-15T10:01:15.215Z,25.51
2019-06-15T10:05:21.962Z,24.56
2019-06-15T10:09:29.098Z,24.01
2019-06-15T10:13:35.843Z,24.00
2019-06-15T10:17:42.738Z,23.69
2019-06-15T10:21:49.748Z,23.67
2019-06-15T10:25:57.679Z,23.80
2019-06-15T10:30:07.748Z,23.74
2019-06-15T10:34:14.789Z,23.51
2019-06-15T10:38:22.692Z,23.41
2019-06-15T10:42:29.489Z,23.58
2019-06-15T10:46:42.429Z,23.44
2019-06-15T10:50:49.472Z,23.46
2019-06-15T10:54:56.344Z,24.64
2019-06-15T10:59:03.830Z,24.15
2019-06-15T11:03:11.063Z,24.53
2019-06-15T11:07:18.868Z,24.09
2019-06-15T11:11:25.839Z,24.03
2019-06-15T11:15:33.082Z,23.82
2019-06-15T11:19:42.665Z,23.39
2019-06-15T11:23:49.553Z,24.26
2019-06-15T11:27:57.985Z,25.18
2019-06-15T11:32:05.245Z,24.01
2019-06-15T11:36:11.989Z,24.35
2019-06-15T11:40:21.023Z,25.71
2019-06-15T11:44:30.803Z,26.76
2019-06-15T11:48:37.689Z,26.88
2019-06-15T11:52:50.103Z,25.87
2019-06-15T11:56:56.945Z,25.56
2019-06-15T12:01:03.878Z,25.29
2019-06-15T12:05:10.893Z,25.51
2019-06-15T12:09:18.732Z,25.83
2019-06-15T12:13:25.553Z,25.06
2019-06-15T12:17:32.886Z,25.14
2019-06-15T12:21:39.676Z,25.10
2019-06-15T12:25:47.623Z,26.30
2019-06-15T12:29:54.921Z,25.82
2019-06-15T12:34:02.022Z,25.92
2019-06-15T12:38:11.832Z,25.47
2019-06-15T12:42:18.705Z,25.20
2019-06-15T12:50:49.985Z,25.19
2019-06-15T12:54:58.198Z,25.00
2019-06-15T12:59:04.994Z,25.16
2019-06-15T13:03:12.282Z,25.40
2019-06-15T13:07:19.229Z,26.25
2019-06-15T13:11:26.184Z,26.19
2019-06-15T13:15:33.646Z,26.46
2019-06-15T13:19:40.532Z,26.16
2019-06-15T13:23:47.411Z,25.76
2019-06-15T13:27:54.620Z,25.69
2019-06-15T13:32:01.371Z,25.62
2019-06-15T13:36:08.186Z,25.48
2019-06-15T13:40:15.157Z,25.52
2019-06-15T13:44:22.080Z,25.58
2019-06-15T13:48:28.945Z,26.22
2019-06-15T13:52:35.739Z,25.97
2019-06-15T13:56:42.595Z,25.88
2019-06-15T14:00:49.383Z,26.25
2019-06-15T14:04:57.009Z,26.94
2019-06-15T14:09:05.400Z,26.55
2019-06-15T14:13:12.305Z,26.47
2019-06-15T14:17:19.610Z,26.23
2019-06-15T14:21:26.492Z,26.14
2019-06-15T14:25:33.328Z,26.33
2019-06-15T14:29:40.197Z,26.13
2019-06-15T14:33:46.990Z,26.30
2019-06-15T14:37:53.775Z,26.02
2019-06-15T14:42:00.602Z,25.68
2019-06-15T14:46:07.391Z,25.67
2019-06-15T14:50:14.538Z,25.53
2019-06-15T14:54:21.569Z,26.01
2019-06-15T14:58:28.370Z,25.95
2019-06-15T15:02:37.135Z,26.18
2019-06-15T15:06:44.077Z,25.73
2019-06-15T15:10:51.099Z,26.32
2019-06-15T15:15:00.724Z,25.93
2019-06-15T15:19:07.643Z,26.54
2019-06-15T15:23:15.789Z,26.72
2019-06-15T15:27:27.012Z,26.33
2019-06-15T15:31:36.247Z,26.46
2019-06-15T15:35:43.519Z,26.68
2019-06-15T15:39:50.420Z,26.63
2019-06-15T15:43:57.205Z,26.97
2019-06-15T15:48:06.593Z,26.64
2019-06-15T15:52:12.644Z,26.74
2019-06-15T15:56:19.395Z,26.21
2019-06-15T16:00:32.819Z,26.31
2019-06-15T16:04:39.613Z,26.04
2019-06-15T16:08:47.236Z,26.03
2019-06-15T16:12:56.671Z,26.02
2019-06-15T16:17:02.741Z,26.04
2019-06-15T16:21:09.783Z,25.99
2019-06-15T16:25:17.495Z,26.18
2019-06-15T16:29:24.890Z,26.24
2019-06-15T16:33:31.761Z,26.20
2019-06-15T16:37:38.817Z,25.93
2019-06-15T16:41:47.034Z,26.13
2019-06-15T16:45:57.040Z,26.12
2019-06-15T16:50:06.927Z,25.94
2019-06-15T16:54:16.753Z,25.88
2019-06-15T16:58:26.348Z,25.92
2019-06-15T17:02:32.171Z,25.73
2019-06-15T17:06:40.829Z,25.61
2019-06-15T17:10:47.528Z,25.82
2019-06-15T17:14:55.209Z,25.70
2019-06-15T17:19:02.027Z,25.55
2019-06-15T17:23:08.799Z,25.33
2019-06-15T17:27:17.093Z,25.29
2019-06-15T17:31:24.116Z,25.11
2019-06-15T17:35:30.890Z,25.01
2019-06-15T17:39:37.688Z,24.94
2019-06-15T17:43:47.214Z,24.90
2019-06-15T17:47:52.935Z,24.85
2019-06-15T17:51:59.816Z,24.78
2019-06-15T17:56:07.337Z,24.63
2019-06-15T18:00:16.567Z,24.66
2019-06-15T18:04:23.521Z,24.51
2019-06-15T18:08:30.655Z,24.48
2019-06-15T18:12:38.154Z,24.39
2019-06-15T18:16:47.057Z,24.29
2019-06-15T18:20:53.748Z,24.18
2019-06-15T18:25:02.189Z,23.96
2019-06-15T18:29:09.359Z,23.84
2019-06-15T18:33:16.476Z,23.72
2019-06-15T18:37:25.714Z,23.72
2019-06-15T18:41:40.239Z,23.66
2019-06-15T18:46:22.235Z,23.52
2019-06-15T18:50:37.669Z,23.43
2019-06-15T18:54:51.037Z,23.22
2019-06-15T18:58:57.978Z,23.22
2019-06-15T19:03:26.283Z,23.24
2019-06-15T19:07:43.308Z,23.12
2019-06-15T19:11:56.454Z,23.03
2019-06-15T19:16:03.036Z,22.93
2019-06-15T19:20:12.176Z,22.82
2019-06-15T19:24:21.702Z,22.72
2019-06-15T19:28:27.919Z,22.64
2019-06-15T19:32:37.763Z,22.53
2019-06-15T19:36:47.733Z,22.42
2019-06-15T19:40:56.580Z,22.30
2019-06-15T19:45:07.745Z,22.24
2019-06-15T19:49:17.011Z,22.09
2019-06-15T19:53:23.336Z,21.99
2019-06-15T19:57:30.667Z,21.91
2019-06-15T20:01:37.519Z,21.78
2019-06-15T20:05:46.169Z,21.71
2019-06-15T20:09:53.458Z,21.60
2019-06-15T20:14:24.846Z,21.48
2019-06-15T20:18:34.076Z,21.41
2019-06-15T20:22:41.231Z,21.28
2019-06-15T20:26:48.314Z,21.25
2019-06-15T20:30:57.091Z,21.15
2019-06-15T20:35:16.190Z,21.08
2019-06-15T20:39:12.471Z,20.97
2019-06-15T20:43:24.222Z,20.89
2019-06-15T20:47:30.990Z,20.87
2019-06-15T20:51:41.250Z,20.79
2019-06-15T20:55:49.245Z,20.69
2019-06-15T20:59:56.515Z,20.62
2019-06-15T21:04:07.331Z,20.57
2019-06-15T21:08:15.849Z,20.43
2019-06-15T21:12:23.449Z,20.39
2019-06-15T21:16:32.010Z,20.39
2019-06-15T21:20:38.910Z,20.30
2019-06-15T21:24:46.671Z,20.28
2019-06-15T21:28:53.427Z,20.18
2019-06-15T21:33:00.296Z,20.13
2019-06-15T21:37:08.378Z,20.06
2019-06-15T21:41:16.643Z,20.04
2019-06-15T21:45:23.684Z,20.09
2019-06-15T21:49:30.550Z,20.08
2019-06-15T21:53:37.331Z,20.00
2019-06-15T21:57:44.086Z,20.18
2019-06-15T22:01:50.871Z,19.95
2019-06-15T22:06:03.090Z,19.95
2019-06-15T22:10:09.060Z,19.94
2019-06-15T22:14:17.123Z,19.80
2019-06-15T22:18:27.101Z,19.90
2019-06-15T22:22:32.683Z,19.72
2019-06-15T22:26:39.481Z,19.79
2019-06-15T22:30:46.468Z,19.73
2019-06-15T22:34:53.126Z,19.66
2019-06-15T22:38:59.952Z,19.57
2019-06-15T22:43:07.086Z,19.46
2019-06-15T22:47:16.689Z,19.43
2019-06-15T22:51:22.414Z,19.47
2019-06-15T22:55:29.123Z,19.44
2019-06-15T22:59:35.870Z,19.43
2019-06-15T23:03:42.657Z,19.47
2019-06-15T23:07:49.442Z,19.55
2019-06-15T23:11:57.365Z,19.54
2019-06-15T23:16:04.181Z,19.60
2019-06-15T23:20:11.004Z,19.64
2019-06-15T23:24:17.719Z,19.66
2019-06-15T23:28:26.852Z,19.71
2019-06-15T23:32:32.885Z,19.72
2019-06-15T23:36:54.234Z,19.73
2019-06-15T23:40:50.407Z,19.68
2019-06-15T23:44:57.133Z,19.72
2019-06-15T23:49:03.838Z,19.76
2019-06-15T23:53:10.583Z,19.72
2019-06-15T23:57:17.309Z,19.69
